Time;durP1;ratioP1;P1;durP2;ratioP2;P2;SDS_P1;SDS_P2;PMS_P1;PMS_P2;Temp;Humidity;BMP_temperature;BMP_pressure;BME280_temperature;BME280_humidity;BME280_pressure;Samples;Min_cycle;Max_cycle;Signal;HPM_P1;HPM_P2
2022/10/15 00:02:17;;;;;;;76.07;43.10;;;;;;;;;;1743331;81;32818;-72
2022/10/15 00:04:43;;;;;;;70.42;42.43;;;;;;;;;;1738951;82;28094;-72
2022/10/15 00:07:08;;;;;;;76.20;44.18;;;;;;;;;;1765350;80;25689;-71
2022/10/15 00:09:34;;;;;;;75.15;44.18;;;;;;;;;;1744282;80;29730;-71
2022/10/15 00:12:00;;;;;;;68.92;41.73;;;;;;;;;;1744152;82;34701;-71
2022/10/15 00:14:26;;;;;;;71.17;42.83;;;;;;;;;;1743182;82;32704;-71
2022/10/15 00:16:52;;;;;;;78.57;42.73;;;;;;;;;;1722399;82;28083;-71
2022/10/15 00:19:18;;;;;;;76.97;45.33;;;;;;;;;;1743619;81;33345;-72
2022/10/15 00:21:44;;;;;;;72.05;43.45;;;;;;;;;;1743437;82;25629;-71
2022/10/15 00:24:10;;;;;;;75.22;43.60;;;;;;;;;;1742862;82;34681;-71
2022/10/15 00:26:36;;;;;;;78.20;44.30;;;;;;;;;;1744075;81;32323;-71
2022/10/15 00:29:02;;;;;;;75.40;42.75;;;;;;;;;;1738261;80;27424;-71
2022/10/15 00:31:30;;;;;;;75.92;42.75;;;;;;;;;;1747129;80;25675;-71
2022/10/15 00:33:59;;;;;;;73.12;43.90;;;;;;;;;;1736053;82;25697;-72
2022/10/15 00:36:26;;;;;;;;;;;;;;;;;;1746559;82;25706;-72
2022/10/15 00:38:52;;;;;;;74.15;41.25;;;;;;;;;;1748500;80;25633;-73
2022/10/15 00:41:22;;;;;;;72.12;42.20;;;;;;;;;;1737900;82;28008;-72
2022/10/15 00:43:54;;;;;;;76.07;43.60;;;;;;;;;;1739450;82;25563;-72
2022/10/15 00:46:30;;;;;;;74.25;42.73;;;;;;;;;;1737000;82;25686;-73
2022/10/15 00:48:59;;;;;;;79.58;43.55;;;;;;;;;;1738624;82;25790;-72
2022/10/15 00:51:29;;;;;;;72.87;43.52;;;;;;;;;;1738414;81;25614;-72
2022/10/15 00:53:55;;;;;;;75.28;42.08;;;;;;;;;;1752905;80;27454;-73
2022/10/15 00:56:23;;;;;;;77.08;43.08;;;;;;;;;;1732340;81;25704;-73
2022/10/15 00:58:50;;;;;;;76.87;45.17;;;;;;;;;;1746906;81;25418;-73
2022/10/15 01:01:16;;;;;;;75.95;44.42;;;;;;;;;;1740167;81;25610;-73
2022/10/15 01:03:42;;;;;;;79.20;45.85;;;;;;;;;;1738398;82;25310;-73
2022/10/15 01:06:08;;;;;;;77.47;44.35;;;;;;;;;;1718855;82;27053;-73
2022/10/15 01:08:34;;;;;;;75.70;43.55;;;;;;;;;;1736622;82;33121;-73
2022/10/15 01:11:22;;;;;;;72.80;42.38;;;;;;;;;;1725599;82;25710;-72
2022/10/15 01:13:55;;;;;;;71.85;43.15;;;;;;;;;;1727371;81;25795;-72
2022/10/15 01:16:27;;;;;;;82.20;46.73;;;;;;;;;;1736219;82;25699;-72
2022/10/15 01:18:57;;;;;;;83.03;45.60;;;;;;;;;;1739279;81;27320;-72
2022/10/15 01:21:25;;;;;;;;;;;;;;;;;;1740540;82;25420;-72
2022/10/15 01:24:13;;;;;;;72.42;41.55;;;;;;;;;;1747959;81;25649;-72
2022/10/15 01:27:16;;;;;;;76.90;43.92;;;;;;;;;;1739499;81;25607;-72
2022/10/15 01:30:12;;;;;;;76.05;43.50;;;;;;;;;;1739344;81;25590;-72
2022/10/15 01:32:58;;;;;;;79.90;45.00;;;;;;;;;;1727010;82;27407;-73
2022/10/15 01:35:43;;;;;;;75.80;44.50;;;;;;;;;;1739135;82;25635;-74
2022/10/15 01:38:34;;;;;;;79.62;45.48;;;;;;;;;;1738355;82;25602;-73
2022/10/15 01:41:11;;;;;;;81.67;45.48;;;;;;;;;;1721461;82;25780;-73
2022/10/15 01:43:49;;;;;;;81.17;45.85;;;;;;;;;;1732464;82;25614;-74
2022/10/15 01:46:22;;;;;;;81.67;45.45;;;;;;;;;;1743433;81;27395;-72
2022/10/15 01:48:49;;;;;;;76.02;45.33;;;;;;;;;;1741612;82;25637;-74
2022/10/15 01:51:16;;;;;;;81.85;47.25;;;;;;;;;;1732871;82;25476;-73
2022/10/15 01:53:43;;;;;;;79.32;43.92;;;;;;;;;;1741178;80;25608;-73
2022/10/15 01:56:15;;;;;;;79.25;44.25;;;;;;;;;;1743973;82;25733;-73
2022/10/15 01:58:42;;;;;;;77.32;44.15;;;;;;;;;;1744072;82;27329;-73
2022/10/15 02:01:08;;;;;;;76.67;45.88;;;;;;;;;;1744455;80;25772;-74
2022/10/15 02:03:49;;;;;;;80.03;45.90;;;;;;;;;;1744288;82;25764;-73
2022/10/15 02:06:31;;;;;;;84.80;44.25;;;;;;;;;;1744936;80;26388;-73
2022/10/15 02:09:16;;;;;;;85.20;46.15;;;;;;;;;;1744318;82;25444;-73
2022/10/15 02:11:58;;;;;;;76.33;44.90;;;;;;;;;;1725380;82;27970;-72
2022/10/15 02:14:30;;;;;;;73.33;43.08;;;;;;;;;;1741535;82;25515;-73
2022/10/15 02:17:21;;;;;;;74.92;43.38;;;;;;;;;;1744072;82;25429;-74
2022/10/15 02:19:53;;;;;;;81.75;44.40;;;;;;;;;;1687445;83;26157;-73
2022/10/15 02:22:34;;;;;;;79.58;43.95;;;;;;;;;;1685787;84;25664;-73
2022/10/15 02:25:07;;;;;;;78.07;43.63;;;;;;;;;;1674605;83;27479;-73
2022/10/15 02:27:34;;;;;;;78.83;44.25;;;;;;;;;;1692269;84;25431;-74
2022/10/15 02:30:03;;;;;;;76.67;44.08;;;;;;;;;;1685647;83;25704;-73
2022/10/15 02:32:30;;;;;;;82.12;45.63;;;;;;;;;;1692529;83;25575;-73
2022/10/15 02:34:57;;;;;;;80.92;44.00;;;;;;;;;;1683886;84;25795;-73
2022/10/15 02:37:25;;;;;;;78.15;43.90;;;;;;;;;;1687133;84;27383;-73
2022/10/15 02:39:51;;;;;;;77.72;44.75;;;;;;;;;;1684581;84;25736;-74
2022/10/15 02:42:18;;;;;;;78.75;45.28;;;;;;;;;;1672701;84;25464;-74
2022/10/15 02:44:44;;;;;;;79.87;44.03;;;;;;;;;;1709695;83;25785;-73
2022/10/15 02:47:10;;;;;;;80.03;46.25;;;;;;;;;;1714707;83;32320;-74
2022/10/15 02:49:36;;;;;;;77.05;46.00;;;;;;;;;;1714729;83;27365;-74
2022/10/15 02:52:03;;;;;;;83.42;47.60;;;;;;;;;;1714626;83;25712;-74
2022/10/15 02:54:29;;;;;;;78.60;43.80;;;;;;;;;;1714706;83;25685;-74
2022/10/15 02:56:55;;;;;;;79.35;44.30;;;;;;;;;;1714669;83;34695;-74
2022/10/15 02:59:21;;;;;;;83.92;46.65;;;;;;;;;;1714669;82;32342;-74
2022/10/15 03:01:47;;;;;;;79.65;45.50;;;;;;;;;;1714773;83;27472;-74
2022/10/15 03:04:13;;;;;;;74.62;43.40;;;;;;;;;;1697897;83;33049;-74
2022/10/15 03:06:39;;;;;;;81.72;44.85;;;;;;;;;;1706338;83;25612;-74
2022/10/15 03:09:05;;;;;;;78.15;45.38;;;;;;;;;;1714227;83;26218;-73
2022/10/15 03:11:31;;;;;;;78.42;42.67;;;;;;;;;;1705004;83;32629;-73
2022/10/15 03:13:57;;;;;;;76.92;43.25;;;;;;;;;;1708197;82;27409;-73
2022/10/15 03:16:23;;;;;;;81.08;45.35;;;;;;;;;;1720299;82;25559;-73
2022/10/15 03:18:49;;;;;;;74.55;43.15;;;;;;;;;;1719323;80;25614;-73
2022/10/15 03:21:15;;;;;;;76.65;43.65;;;;;;;;;;1723368;82;25611;-73
2022/10/15 03:23:41;;;;;;;74.07;42.60;;;;;;;;;;1718364;82;25662;-74
2022/10/15 03:26:07;;;;;;;76.00;43.15;;;;;;;;;;1723432;82;27111;-73
2022/10/15 03:28:33;;;;;;;80.32;43.17;;;;;;;;;;1718868;82;25417;-73
2022/10/15 03:30:59;;;;;;;81.37;43.00;;;;;;;;;;1661699;84;30120;-74
2022/10/15 03:33:25;;;;;;;81.80;44.08;;;;;;;;;;1636742;86;34947;-74
2022/10/15 03:35:51;;;;;;;72.40;42.65;;;;;;;;;;1726313;82;25537;-73
2022/10/15 03:38:17;;;;;;;71.77;42.27;;;;;;;;;;1725704;82;28019;-73
2022/10/15 03:40:45;;;;;;;77.12;43.35;;;;;;;;;;1706389;82;33056;-74
2022/10/15 03:43:11;;;;;;;81.90;43.20;;;;;;;;;;1668767;84;25652;-73
2022/10/15 03:45:37;;;;;;;80.87;44.48;;;;;;;;;;1630418;87;25800;-73
2022/10/15 03:48:04;;;;;;;85.70;44.75;;;;;;;;;;1714783;83;25805;-73
2022/10/15 03:50:30;;;;;;;85.17;43.80;;;;;;;;;;1714764;82;27475;-74
2022/10/15 03:52:56;;;;;;;82.40;44.70;;;;;;;;;;1662608;83;33315;-73
2022/10/15 03:55:22;;;;;;;78.22;43.08;;;;;;;;;;1640419;86;29630;-73
2022/10/15 03:57:47;;;;;;;76.57;44.38;;;;;;;;;;1707347;82;35239;-73
2022/10/15 04:00:15;;;;;;;78.37;44.23;;;;;;;;;;1724405;82;32221;-73
2022/10/15 04:02:41;;;;;;;79.50;44.35;;;;;;;;;;1723725;81;28020;-73
2022/10/15 04:05:07;;;;;;;86.12;45.52;;;;;;;;;;1714724;82;33644;-74
2022/10/15 04:07:33;;;;;;;83.55;46.18;;;;;;;;;;1726070;82;25670;-73
2022/10/15 04:09:59;;;;;;;78.42;46.02;;;;;;;;;;1711111;82;25686;-74
2022/10/15 04:12:25;;;;;;;80.30;44.25;;;;;;;;;;1719589;82;33351;-74
2022/10/15 04:14:51;;;;;;;75.60;45.17;;;;;;;;;;1720839;82;27435;-74
2022/10/15 04:17:16;;;;;;;81.67;43.40;;;;;;;;;;1654167;85;33173;-74
2022/10/15 04:19:43;;;;;;;81.92;44.85;;;;;;;;;;1614910;87;29627;-74
2022/10/15 04:22:09;;;;;;;76.50;43.00;;;;;;;;;;1627635;87;25609;-73
2022/10/15 04:24:34;;;;;;;75.60;42.48;;;;;;;;;;1680072;85;32300;-74
2022/10/15 04:27:00;;;;;;;72.97;41.68;;;;;;;;;;1674100;85;27384;-73
2022/10/15 04:29:27;;;;;;;74.47;42.40;;;;;;;;;;1678190;85;33680;-73
2022/10/15 04:31:52;;;;;;;76.40;41.98;;;;;;;;;;1679208;85;25502;-73
2022/10/15 04:34:18;;;;;;;73.25;42.95;;;;;;;;;;1670240;85;34972;-74
2022/10/15 04:36:44;;;;;;;73.25;42.10;;;;;;;;;;1679854;85;25497;-73
2022/10/15 04:39:10;;;;;;;78.95;43.55;;;;;;;;;;1674378;84;27402;-73
2022/10/15 04:41:36;;;;;;;77.62;43.30;;;;;;;;;;1661259;85;33170;-73
2022/10/15 04:44:02;;;;;;;73.22;43.50;;;;;;;;;;1683543;85;29634;-73
2022/10/15 04:46:29;;;;;;;77.65;43.42;;;;;;;;;;1679580;84;25635;-73
2022/10/15 04:48:56;;;;;;;78.80;42.88;;;;;;;;;;1683663;85;25458;-73
2022/10/15 04:51:23;;;;;;;78.55;43.02;;;;;;;;;;1676221;85;27872;-73
2022/10/15 04:53:49;;;;;;;75.60;42.85;;;;;;;;;;1662225;85;25417;-73
2022/10/15 04:56:18;;;;;;;70.92;40.55;;;;;;;;;;1696150;83;25630;-73
2022/10/15 04:58:46;;;;;;;75.20;43.25;;;;;;;;;;1685084;83;25691;-74
2022/10/15 05:01:14;;;;;;;78.07;43.17;;;;;;;;;;1685578;85;25588;-73
2022/10/15 05:03:42;;;;;;;70.15;41.08;;;;;;;;;;1683034;85;27939;-72
2022/10/15 05:06:10;;;;;;;75.87;41.53;;;;;;;;;;1682932;85;25552;-73
2022/10/15 05:08:40;;;;;;;80.03;43.13;;;;;;;;;;1696219;83;25682;-73
2022/10/15 05:11:08;;;;;;;73.30;40.48;;;;;;;;;;1683579;83;25637;-73
2022/10/15 05:13:34;;;;;;;69.70;42.60;;;;;;;;;;1710580;83;25596;-73
2022/10/15 05:16:22;;;;;;;75.12;42.83;;;;;;;;;;1690760;83;27361;-72
2022/10/15 05:18:50;;;;;;;69.70;40.55;;;;;;;;;;1680490;83;25462;-73
2022/10/15 05:21:17;;;;;;;71.57;41.80;;;;;;;;;;1734185;82;25649;-73
2022/10/15 05:23:43;;;;;;;70.67;40.67;;;;;;;;;;1739792;82;25617;-73
2022/10/15 05:26:14;;;;;;;70.12;41.37;;;;;;;;;;1721157;82;25736;-73
2022/10/15 05:28:41;;;;;;;77.70;43.85;;;;;;;;;;1714063;83;27068;-74
2022/10/15 05:31:10;;;;;;;71.55;40.92;;;;;;;;;;1668983;84;25458;-74
2022/10/15 05:33:36;;;;;;;83.03;43.10;;;;;;;;;;1630300;86;25556;-74
2022/10/15 05:36:11;;;;;;;77.05;42.88;;;;;;;;;;1714250;82;25613;-73
2022/10/15 05:38:38;;;;;;;77.50;43.15;;;;;;;;;;1677329;85;25644;-74
2022/10/15 05:41:05;;;;;;;75.30;43.02;;;;;;;;;;1619288;87;27344;-73
2022/10/15 05:43:31;;;;;;;78.60;43.68;;;;;;;;;;1704768;82;25659;-73
2022/10/15 05:45:57;;;;;;;73.50;43.40;;;;;;;;;;1671155;84;25583;-73
2022/10/15 05:48:23;;;;;;;82.42;45.10;;;;;;;;;;1634829;86;25637;-73
2022/10/15 05:50:49;;;;;;;77.75;43.33;;;;;;;;;;1716525;81;25550;-73
2022/10/15 05:53:15;;;;;;;79.80;41.98;;;;;;;;;;1727283;82;28030;-73
2022/10/15 05:55:41;;;;;;;75.00;43.15;;;;;;;;;;1737804;82;25716;-73
2022/10/15 05:58:07;;;;;;;80.60;44.77;;;;;;;;;;1741301;82;29647;-74
2022/10/15 06:00:35;;;;;;;77.32;42.05;;;;;;;;;;1739995;82;25750;-73
2022/10/15 06:03:01;;;;;;;81.42;44.30;;;;;;;;;;1717071;82;25482;-73
2022/10/15 06:05:27;;;;;;;80.87;43.55;;;;;;;;;;1720774;82;27452;-74
2022/10/15 06:07:53;;;;;;;78.85;42.75;;;;;;;;;;1730616;82;33046;-73
2022/10/15 06:10:19;;;;;;;77.85;43.02;;;;;;;;;;1725005;82;25577;-74
2022/10/15 06:12:49;;;;;;;78.97;42.88;;;;;;;;;;1724372;82;25653;-74
2022/10/15 06:15:17;;;;;;;81.00;43.20;;;;;;;;;;1655324;84;25748;-73
2022/10/15 06:17:44;;;;;;;79.40;44.58;;;;;;;;;;1631880;85;27358;-72
2022/10/15 06:20:11;;;;;;;80.25;43.30;;;;;;;;;;1673731;84;25428;-73
2022/10/15 06:22:38;;;;;;;85.60;45.60;;;;;;;;;;1676892;84;25626;-73
2022/10/15 06:25:05;;;;;;;83.10;44.38;;;;;;;;;;1693079;83;26183;-73
2022/10/15 06:27:32;;;;;;;75.10;41.73;;;;;;;;;;1703833;83;25453;-73
2022/10/15 06:29:58;;;;;;;78.33;43.78;;;;;;;;;;1683828;83;27310;-75
2022/10/15 06:32:24;;;;;;;81.17;45.45;;;;;;;;;;1686258;84;33027;-73
2022/10/15 06:34:50;;;;;;;84.92;45.63;;;;;;;;;;1684564;83;29672;-73
2022/10/15 06:37:16;;;;;;;80.77;46.05;;;;;;;;;;1682423;85;35106;-74
2022/10/15 06:39:42;;;;;;;83.05;47.00;;;;;;;;;;1680890;84;25291;-73
2022/10/15 06:42:08;;;;;;;82.95;45.00;;;;;;;;;;1674301;84;27376;-73
2022/10/15 06:44:34;;;;;;;74.07;44.50;;;;;;;;;;1680476;84;32997;-69
2022/10/15 06:47:00;;;;;;;74.22;44.67;;;;;;;;;;1681829;83;25750;-69
2022/10/15 06:49:26;;;;;;;81.97;44.85;;;;;;;;;;1681333;83;25665;-69
2022/10/15 06:51:52;;;;;;;73.35;44.38;;;;;;;;;;1679537;83;25571;-69
2022/10/15 06:54:18;;;;;;;69.45;41.63;;;;;;;;;;1702558;83;27354;-69
2022/10/15 06:56:44;;;;;;;66.25;40.35;;;;;;;;;;1680239;85;25557;-69
2022/10/15 06:59:10;;;;;;;59.25;38.20;;;;;;;;;;1678181;83;29737;-68
2022/10/15 07:01:36;;;;;;;61.58;37.85;;;;;;;;;;1688182;83;27807;-68
2022/10/15 07:04:02;;;;;;;63.63;38.78;;;;;;;;;;1690338;83;30630;-69
2022/10/15 07:06:28;;;;;;;61.35;38.70;;;;;;;;;;1701304;83;27394;-69
2022/10/15 07:08:54;;;;;;;58.70;37.75;;;;;;;;;;1665662;83;33581;-68
2022/10/15 07:11:20;;;;;;;55.28;35.38;;;;;;;;;;1686039;83;29670;-67
2022/10/15 07:13:48;;;;;;;56.48;35.95;;;;;;;;;;1678344;83;25889;-69
2022/10/15 07:16:15;;;;;;;59.10;36.53;;;;;;;;;;1682044;83;25686;-70
2022/10/15 07:18:41;;;;;;;55.85;33.35;;;;;;;;;;1691949;83;27440;-71
2022/10/15 07:21:09;;;;;;;54.73;35.13;;;;;;;;;;1705086;81;25687;-70
2022/10/15 07:23:35;;;;;;;51.23;34.30;;;;;;;;;;1697210;83;25383;-70
2022/10/15 07:26:03;;;;;;;52.62;34.40;;;;;;;;;;1670243;84;25660;-74
2022/10/15 07:28:29;;;;;;;52.53;33.25;;;;;;;;;;1689810;83;25557;-70
2022/10/15 07:31:03;;;;;;;47.78;31.77;;;;;;;;;;1683604;83;27361;-69
2022/10/15 07:33:30;;;;;;;52.35;33.60;;;;;;;;;;1664679;84;25654;-71
2022/10/15 07:35:57;;;;;;;51.60;32.42;;;;;;;;;;1679079;83;25489;-71
2022/10/15 07:38:25;;;;;;;48.60;31.23;;;;;;;;;;1682724;83;25736;-70
2022/10/15 07:40:51;;;;;;;47.40;30.65;;;;;;;;;;1670496;85;25397;-70
2022/10/15 07:43:17;;;;;;;48.65;30.70;;;;;;;;;;1683426;85;27423;-71
2022/10/15 07:45:48;;;;;;;40.43;28.35;;;;;;;;;;1670239;85;33050;-71
2022/10/15 07:48:15;;;;;;;39.23;27.75;;;;;;;;;;1680337;83;25699;-72
2022/10/15 07:50:45;;;;;;;43.20;29.95;;;;;;;;;;1696125;83;25632;-71
2022/10/15 07:53:12;;;;;;;41.40;27.65;;;;;;;;;;1688568;83;25387;-70
2022/10/15 07:55:38;;;;;;;38.42;25.45;;;;;;;;;;1701900;83;27397;-68
2022/10/15 07:58:07;;;;;;;33.35;24.82;;;;;;;;;;1656567;83;25705;-70
2022/10/15 08:00:33;;;;;;;38.53;26.50;;;;;;;;;;1680340;83;25664;-69
2022/10/15 08:03:00;;;;;;;34.90;25.17;;;;;;;;;;1680569;83;25756;-70
2022/10/15 08:05:26;;;;;;;38.20;25.75;;;;;;;;;;1675881;83;25613;-71
2022/10/15 08:07:52;;;;;;;39.03;25.62;;;;;;;;;;1682142;83;27964;-70
2022/10/15 08:10:20;;;;;;;36.98;26.10;;;;;;;;;;1694299;83;25554;-71
2022/10/15 08:12:46;;;;;;;40.52;27.55;;;;;;;;;;1694384;83;25603;-71
2022/10/15 08:15:12;;;;;;;43.02;26.30;;;;;;;;;;1686586;83;25739;-71
2022/10/15 08:17:38;;;;;;;37.58;24.55;;;;;;;;;;1694178;83;25727;-70
2022/10/15 08:20:06;;;;;;;39.20;26.82;;;;;;;;;;1692760;83;27326;-71
2022/10/15 08:22:33;;;;;;;37.60;26.47;;;;;;;;;;1689546;83;25625;-69
2022/10/15 08:24:59;;;;;;;39.53;25.43;;;;;;;;;;1690763;83;25615;-69
2022/10/15 08:27:25;;;;;;;39.65;26.95;;;;;;;;;;1671201;85;32514;-70
2022/10/15 08:29:51;;;;;;;40.00;25.52;;;;;;;;;;1684501;82;25731;-67
2022/10/15 08:32:17;;;;;;;36.77;24.72;;;;;;;;;;1711243;82;27334;-70
2022/10/15 08:34:43;;;;;;;40.28;26.17;;;;;;;;;;1715567;82;33320;-70
2022/10/15 08:37:09;;;;;;;36.75;26.15;;;;;;;;;;1695923;83;25678;-72
2022/10/15 08:39:36;;;;;;;37.83;25.82;;;;;;;;;;1702268;83;26200;-72
2022/10/15 08:42:10;;;;;;;40.92;26.85;;;;;;;;;;1713809;83;26201;-71
2022/10/15 08:44:40;;;;;;;39.13;27.32;;;;;;;;;;1714449;82;27398;-72
2022/10/15 08:47:28;;;;;;;39.20;26.07;;;;;;;;;;1714515;82;25661;-69
2022/10/15 08:49:58;;;;;;;37.58;24.75;;;;;;;;;;1715119;83;25747;-69
2022/10/15 08:52:39;;;;;;;36.45;25.43;;;;;;;;;;1714684;82;25670;-69
2022/10/15 08:55:06;;;;;;;43.65;25.85;;;;;;;;;;1714756;82;25413;-69
2022/10/15 08:57:53;;;;;;;37.23;23.20;;;;;;;;;;1714656;82;27410;-68
2022/10/15 09:00:33;;;;;;;36.80;23.18;;;;;;;;;;1694268;83;25677;-70
2022/10/15 09:03:05;;;;;;;33.50;23.25;;;;;;;;;;1696529;83;25770;-70
2022/10/15 09:06:01;;;;;;;34.85;23.12;;;;;;;;;;1631911;86;25818;-68
2022/10/15 09:08:45;;;;;;;31.77;22.32;;;;;;;;;;1579370;88;25819;-69
2022/10/15 09:11:38;;;;;;;31.62;22.55;;;;;;;;;;1589193;88;27442;-68
2022/10/15 09:14:06;;;;;;;28.70;21.12;;;;;;;;;;1577420;88;25712;-69
2022/10/15 09:16:35;;;;;;;35.43;22.65;;;;;;;;;;1585085;90;25570;-70
2022/10/15 09:19:05;;;;;;;29.82;20.15;;;;;;;;;;1585450;90;25909;-67
2022/10/15 09:21:33;;;;;;;30.68;20.70;;;;;;;;;;1563715;89;25953;-69
2022/10/15 09:24:05;;;;;;;27.93;21.23;;;;;;;;;;1550052;90;27712;-69
2022/10/15 09:26:46;;;;;;;29.02;20.80;;;;;;;;;;1561404;90;25802;-66
2022/10/15 09:29:20;;;;;;;29.55;20.68;;;;;;;;;;1557331;91;25758;-69
2022/10/15 09:31:49;;;;;;;28.73;20.68;;;;;;;;;;1546361;91;25601;-69
2022/10/15 09:34:37;;;;;;;26.93;20.52;;;;;;;;;;1579822;87;25673;-70
2022/10/15 09:37:07;;;;;;;31.37;21.42;;;;;;;;;;1601953;87;27417;-70
2022/10/15 09:39:37;;;;;;;29.92;21.62;;;;;;;;;;1606257;87;25710;-68
2022/10/15 09:42:29;;;;;;;31.73;22.52;;;;;;;;;;1604547;86;25809;-69
2022/10/15 09:45:02;;;;;;;27.60;20.23;;;;;;;;;;1690247;84;25734;-67
2022/10/15 09:47:33;;;;;;;32.65;20.80;;;;;;;;;;1704439;84;25770;-67
2022/10/15 09:50:00;;;;;;;32.23;21.25;;;;;;;;;;1690889;83;27462;-67
2022/10/15 09:52:33;;;;;;;36.50;22.45;;;;;;;;;;1694333;84;25809;-67
2022/10/15 09:55:11;;;;;;;29.30;21.40;;;;;;;;;;1684299;83;25682;-66
2022/10/15 09:57:39;;;;;;;34.15;21.20;;;;;;;;;;1678312;84;26401;-68
2022/10/15 10:00:08;;;;;;;29.80;20.77;;;;;;;;;;1676450;84;25951;-70
2022/10/15 10:02:35;;;;;;;37.23;22.00;;;;;;;;;;1686932;84;27880;-72
2022/10/15 10:05:30;;;;;;;29.85;21.05;;;;;;;;;;1697531;83;26296;-69
2022/10/15 10:08:24;;;;;;;27.32;20.05;;;;;;;;;;1679797;83;25732;-70
2022/10/15 10:10:56;;;;;;;33.80;22.10;;;;;;;;;;1680505;84;26203;-70
2022/10/15 10:13:25;;;;;;;33.90;21.62;;;;;;;;;;1675453;84;25791;-71
2022/10/15 10:15:53;;;;;;;29.72;21.25;;;;;;;;;;1675448;84;27401;-70
2022/10/15 10:18:22;;;;;;;30.57;20.12;;;;;;;;;;1681320;84;25747;-71
2022/10/15 10:21:00;;;;;;;34.05;22.05;;;;;;;;;;1683886;82;25805;-72
2022/10/15 10:23:34;;;;;;;35.70;21.93;;;;;;;;;;1680195;83;25723;-71
2022/10/15 10:26:06;;;;;;;37.73;21.93;;;;;;;;;;1681344;83;25619;-70
2022/10/15 10:28:35;;;;;;;34.25;21.75;;;;;;;;;;1682804;83;27314;-68
2022/10/15 10:31:03;;;;;;;;;;;;;;;;;;1696030;83;25652;-67
2022/10/15 10:33:47;;;;;;;29.60;20.45;;;;;;;;;;1735726;82;25739;-70
2022/10/15 10:36:28;;;;;;;28.92;19.57;;;;;;;;;;1734345;82;25867;-67
2022/10/15 10:39:30;;;;;;;32.63;19.95;;;;;;;;;;1682296;84;25699;-67
2022/10/15 10:42:01;;;;;;;29.48;20.15;;;;;;;;;;1636907;85;27343;-67
2022/10/15 10:44:38;;;;;;;32.73;20.52;;;;;;;;;;1651460;86;25781;-67
2022/10/15 10:47:20;;;;;;;28.75;18.42;;;;;;;;;;1651461;85;25728;-70
2022/10/15 10:49:54;;;;;;;30.00;19.42;;;;;;;;;;1650878;85;25741;-69
2022/10/15 10:52:29;;;;;;;27.13;18.20;;;;;;;;;;1651093;85;25614;-68
2022/10/15 10:55:16;;;;;;;30.15;17.82;;;;;;;;;;1652817;85;27409;-68
2022/10/15 10:57:51;;;;;;;28.23;18.87;;;;;;;;;;1631211;86;27038;-68
2022/10/15 11:00:30;;;;;;;34.00;18.85;;;;;;;;;;1624050;86;25880;-67
2022/10/15 11:02:56;;;;;;;29.77;18.90;;;;;;;;;;1628484;86;25729;-67
2022/10/15 11:05:25;;;;;;;26.10;18.05;;;;;;;;;;1637910;86;26005;-67
2022/10/15 11:08:01;;;;;;;28.62;18.40;;;;;;;;;;1628991;86;27336;-67
2022/10/15 11:10:30;;;;;;;28.17;18.17;;;;;;;;;;1627635;86;26479;-67
2022/10/15 11:13:06;;;;;;;26.05;18.37;;;;;;;;;;1651515;85;25682;-68
2022/10/15 11:15:53;;;;;;;30.82;18.77;;;;;;;;;;1656964;83;25725;-68
2022/10/15 11:18:32;;;;;;;28.00;17.75;;;;;;;;;;1572175;90;26307;-68
2022/10/15 11:21:28;;;;;;;25.92;17.07;;;;;;;;;;1621312;86;27411;-67
2022/10/15 11:24:01;;;;;;;26.35;18.10;;;;;;;;;;1629512;88;25715;-68
2022/10/15 11:26:42;;;;;;;22.95;18.15;;;;;;;;;;1598148;87;25844;-69
2022/10/15 11:29:24;;;;;;;25.32;16.42;;;;;;;;;;1628462;85;25721;-70
2022/10/15 11:32:09;;;;;;;23.90;16.00;;;;;;;;;;1535333;91;25418;-69
2022/10/15 11:34:51;;;;;;;23.73;16.75;;;;;;;;;;1554899;91;27405;-68
2022/10/15 11:37:37;;;;;;;23.50;16.27;;;;;;;;;;1565479;90;25853;-68
2022/10/15 11:40:17;;;;;;;20.95;15.95;;;;;;;;;;1577461;90;25686;-69
2022/10/15 11:53:42;;;;;;;19.37;15.78;;;;;;;;;;1576383;88;25868;-75
2022/10/15 11:56:27;;;;;;;19.32;14.78;;;;;;;;;;1618136;86;25711;-74
2022/10/15 11:59:05;;;;;;;24.95;16.02;;;;;;;;;;1660987;85;25879;-73
2022/10/15 12:01:35;;;;;;;21.65;16.32;;;;;;;;;;1544154;90;27685;-72
2022/10/15 12:04:17;;;;;;;24.12;16.50;;;;;;;;;;1559069;90;25850;-72
2022/10/15 12:06:46;;;;;;;20.95;16.05;;;;;;;;;;1558312;90;25501;-73
2022/10/15 12:51:27;;;;;;;25.80;15.72;;;;;;;19.06;55.98;100109.89;1904730;74;25622;-77
2022/10/15 12:53:56;;;;;;;29.05;15.43;;;;;;;18.82;56.55;100100.35;1860133;75;25381;-77
2022/10/15 12:56:38;;;;;;;21.97;14.45;;;;;;;18.65;57.01;100097.53;1860015;75;27125;-76
2022/10/15 12:59:30;;;;;;;24.87;17.25;;;;;;;18.54;57.38;100105.37;1884916;75;25604;-75
2022/10/15 13:01:57;;;;;;;31.30;28.12;;;;;;;18.42;57.78;100104.98;1860451;75;25763;-76
2022/10/15 13:04:27;;;;;;;60.45;55.30;;;;;;;18.29;58.32;100101.08;1860307;77;25594;-77
2022/10/15 13:06:57;;;;;;;35.05;28.45;;;;;;;18.21;58.62;100098.00;1826439;77;25670;-76
2022/10/15 13:09:27;;;;;;;32.15;23.73;;;;;;;18.11;58.97;100107.61;1846932;77;27595;-74
2022/10/15 13:11:56;;;;;;;39.40;35.60;;;;;;;18.03;59.19;100099.64;1848444;77;25189;-75
2022/10/15 13:14:41;;;;;;;82.33;75.90;;;;;;;17.98;59.64;100099.38;1826454;77;25617;-75
2022/10/15 13:17:18;;;;;;;53.02;48.48;;;;;;;17.92;59.88;100097.50;1849208;77;25588;-76
2022/10/15 13:20:06;;;;;;;86.42;79.77;;;;;;;17.89;60.08;100097.44;1827986;77;25399;-75
2022/10/15 13:22:36;;;;;;;81.27;75.43;;;;;;;17.82;60.37;100095.33;1783852;78;28987;-75
2022/10/15 13:25:18;;;;;;;69.55;64.35;;;;;;;17.77;60.65;100095.63;1819826;78;25858;-75
2022/10/15 13:27:44;;;;;;;87.30;80.72;;;;;;;17.71;60.70;100102.56;1793707;78;25661;-75
2022/10/15 13:30:16;;;;;;;91.30;84.52;;;;;;;17.64;60.93;100098.30;1798717;78;25411;-75
2022/10/15 13:32:54;;;;;;;90.28;83.27;;;;;;;17.55;60.93;100093.06;1797182;78;25460;-76
2022/10/15 13:35:27;;;;;;;89.25;82.55;;;;;;;17.51;61.25;100091.63;1806061;77;28714;-75
2022/10/15 13:37:55;;;;;;;89.90;83.00;;;;;;;17.46;61.43;100094.66;1821866;78;25563;-75
2022/10/15 13:40:26;;;;;;;89.00;82.50;;;;;;;17.43;61.72;100098.69;1822269;78;25635;-75
2022/10/15 13:43:18;;;;;;;87.25;80.85;;;;;;;17.38;61.81;100096.24;1789616;78;25673;-75
2022/10/15 13:45:56;;;;;;;90.17;83.45;;;;;;;17.36;61.91;100092.50;1822255;77;25649;-76
2022/10/15 13:48:28;;;;;;;89.40;82.35;;;;;;;17.35;62.27;100096.40;1794516;78;27459;-77
2022/10/15 13:51:01;;;;;;;88.85;82.30;;;;;;;17.38;62.30;100097.61;1802982;78;25639;-74
2022/10/15 13:53:39;;;;;;;89.17;82.57;;;;;;;17.39;62.43;100100.57;1792863;78;25613;-75
2022/10/15 13:56:30;;;;;;;89.75;82.88;;;;;;;17.40;62.32;100102.13;1769659;79;25488;-75
2022/10/15 13:59:01;;;;;;;88.27;81.97;;;;;;;17.42;62.31;100089.70;1775891;79;25510;-75
2022/10/15 14:01:30;;;;;;;89.52;82.92;;;;;;;17.46;62.22;100096.60;1774048;79;27557;-75
2022/10/15 14:03:59;;;;;;;;;;;;;;;17.46;61.97;100091.14;1745768;80;25814;-76
2022/10/15 14:06:30;;;;;;;88.07;81.72;;;;;;;17.46;62.01;100096.60;1764209;80;25527;-76
2022/10/15 14:09:02;;;;;;;88.25;81.65;;;;;;;17.43;61.83;100093.22;1786318;79;25538;-76
2022/10/15 14:11:31;;;;;;;89.72;83.27;;;;;;;17.43;61.93;100102.20;1757644;79;25473;-75
2022/10/15 14:14:00;;;;;;;88.33;81.70;;;;;;;17.39;61.86;100099.20;1795690;79;28129;-76
2022/10/15 14:16:37;;;;;;;88.92;82.53;;;;;;;17.34;61.97;100096.95;1795352;79;25748;-75
2022/10/15 14:19:09;;;;;;;91.42;84.45;;;;;;;17.35;62.20;100093.66;1766074;79;25520;-76
2022/10/15 14:21:40;;;;;;;90.67;83.95;;;;;;;17.32;62.21;100093.02;1764050;79;25795;-76
2022/10/15 14:24:19;;;;;;;89.35;82.15;;;;;;;17.29;62.32;100099.97;1771121;79;25574;-75
2022/10/15 14:26:48;;;;;;;91.55;84.62;;;;;;;17.27;62.41;100101.50;1775266;79;28146;-75
2022/10/15 14:29:26;;;;;;;91.37;84.57;;;;;;;17.23;62.54;100105.52;1763927;79;25823;-75
2022/10/15 14:31:53;;;;;;;90.60;83.92;;;;;;;17.19;62.69;100100.55;1752502;81;25707;-76
2022/10/15 14:34:38;;;;;;;91.00;83.85;;;;;;;17.19;62.79;100103.27;1760346;81;25491;-75
2022/10/15 14:37:41;;;;;;;90.95;84.28;;;;;;;17.16;62.84;100102.62;1709687;83;25553;-76
2022/10/15 14:40:13;;;;;;;81.53;74.67;;;;;;;17.13;62.96;100106.09;1750274;80;27323;-75
2022/10/15 14:42:57;;;;;;;27.60;17.87;;;;;;;17.07;63.16;100109.66;1748289;81;25829;-76
2022/10/15 14:45:30;;;;;;;30.55;18.40;;;;;;;17.04;63.24;100107.63;1780792;79;25640;-76
2022/10/15 14:48:19;;;;;;;31.57;23.77;;;;;;;16.98;63.37;100115.91;1769262;79;25491;-76
2022/10/15 14:50:46;;;;;;;27.00;19.10;;;;;;;16.95;63.49;100104.33;1773240;79;25693;-75
2022/10/15 14:53:29;;;;;;;30.37;18.40;;;;;;;16.91;63.73;100106.20;1748682;78;28137;-76
2022/10/15 14:56:01;;;;;;;30.12;19.10;;;;;;;16.89;63.97;100112.02;1786575;79;25235;-76
2022/10/15 14:58:30;;;;;;;27.48;18.15;;;;;;;16.84;64.03;100114.17;1788362;78;25416;-77
2022/10/15 15:01:05;;;;;;;32.03;18.80;;;;;;;16.79;64.20;100114.68;1771329;79;25519;-73